Аэропорт: Актобе. Актобе

ICAO: UATT

METAR:
2018/05/20 23:00
UATT 202300Z 14002MPS CAVOK 13/08 Q1018 R13/CLRD70 NOSIG RMK QFE744/0992
METAR:
2018/05/20 18:18
TAF UATT 201700Z 2018/2118 22005MPS 5000 FU SCT050CB TX30/2112Z TN13/2101Z 
      TEMPO 2106/2118 VRB12MPS 3000 -TSRA BKN030CB